Time;durP1;ratioP1;P1;durP2;ratioP2;P2;SDS_P1;SDS_P2;PMS_P1;PMS_P2;Temp;Humidity;BMP_temperature;BMP_pressure;BME280_temperature;BME280_humidity;BME280_pressure;Samples;Min_cycle;Max_cycle;Signal;HPM_P1;HPM_P2
2022/03/06 00:02:18;;;;;;;;;;;8.50;99.90;;;;;;5021075;28;20032;-91
2022/03/06 00:04:44;;;;;;;;;;;8.60;99.90;;;;;;5023305;28;19916;-91
2022/03/06 00:07:10;;;;;;;;;;;8.60;99.90;;;;;;5023154;28;20507;-91
2022/03/06 00:09:35;;;;;;;;;;;8.60;99.90;;;;;;5023065;28;19914;-91
2022/03/06 00:12:01;;;;;;;;;;;8.70;99.90;;;;;;5022641;28;19918;-91
2022/03/06 00:14:26;;;;;;;;;;;8.60;99.90;;;;;;5017175;28;20274;-91
2022/03/06 00:16:53;;;;;;;;;;;8.70;99.90;;;;;;5021827;28;20404;-90
2022/03/06 00:19:18;;;;;;;;;;;8.60;99.90;;;;;;5022549;28;19910;-91
2022/03/06 00:21:44;;;;;;;;;;;8.60;99.90;;;;;;5022037;28;19916;-91
2022/03/06 00:24:10;;;;;;;;;;;8.50;99.90;;;;;;5020202;28;19910;-91
2022/03/06 00:26:36;;;;;;;;;;;8.60;99.90;;;;;;5022368;28;19921;-90
2022/03/06 00:29:03;;;;;;;;;;;8.50;99.90;;;;;;5020444;28;19913;-91
2022/03/06 00:31:28;;;;;;;;;;;8.60;99.90;;;;;;5022554;28;20392;-91
2022/03/06 00:33:54;;;;;;;;;;;8.60;99.90;;;;;;5021553;28;20076;-90
2022/03/06 00:36:20;;;;;;;;;;;8.60;99.90;;;;;;5021227;28;19910;-91
2022/03/06 00:38:45;;;;;;;;;;;8.50;99.90;;;;;;5017820;28;19919;-91
2022/03/06 00:41:12;;;;;;;;;;;8.50;99.90;;;;;;5020478;28;19909;-91
2022/03/06 00:43:37;;;;;;;;;;;8.50;99.90;;;;;;5022702;28;20194;-91
2022/03/06 00:46:03;;;;;;;;;;;8.50;99.90;;;;;;5019358;28;20549;-91
2022/03/06 00:48:28;;;;;;;;;;;8.50;99.90;;;;;;5019349;28;19917;-91
2022/03/06 00:50:54;;;;;;;;;;;8.50;99.90;;;;;;5022113;28;20370;-91
2022/03/06 00:53:20;;;;;;;;;;;8.50;99.90;;;;;;5023376;28;20012;-91
2022/03/06 00:55:46;;;;;;;;;;;8.40;99.90;;;;;;5022263;28;19913;-90
2022/03/06 00:58:12;;;;;;;;;;;8.40;99.90;;;;;;5024493;28;19909;-91
2022/03/06 01:00:42;;;;;;;;;;;8.50;99.90;;;;;;5022006;28;20294;-91
2022/03/06 01:03:08;;;;;;;;;;;8.40;99.90;;;;;;5016111;28;19936;-91
2022/03/06 01:05:34;;;;;;;;;;;8.40;99.90;;;;;;5019586;28;19913;-90
2022/03/06 01:08:00;;;;;;;;;;;8.30;99.90;;;;;;5019838;28;20000;-90
2022/03/06 01:10:26;;;;;;;;;;;8.40;99.90;;;;;;5020550;28;19992;-91
2022/03/06 01:12:52;;;;;;;;;;;8.40;99.90;;;;;;5034886;28;20321;-91
2022/03/06 01:15:17;;;;;;;;;;;8.30;99.90;;;;;;5018990;28;20282;-91
2022/03/06 01:17:43;;;;;;;;;;;8.40;99.90;;;;;;5019978;28;19932;-91
2022/03/06 01:20:11;;;;;;;;;;;8.30;99.90;;;;;;5019248;28;20155;-90
2022/03/06 01:22:37;;;;;;;;;;;8.40;99.90;;;;;;5020389;28;19910;-90
2022/03/06 01:25:03;;;;;;;;;;;8.40;99.90;;;;;;5020451;28;19909;-90
2022/03/06 01:27:29;;;;;;;;;;;8.40;99.90;;;;;;5020101;28;19909;-91
2022/03/06 01:29:54;;;;;;;;;;;8.30;99.90;;;;;;5019174;28;20400;-90
2022/03/06 01:32:20;;;;;;;;;;;8.30;99.90;;;;;;5016361;28;19951;-90
2022/03/06 01:34:45;;;;;;;;;;;8.30;99.90;;;;;;5020343;28;19913;-91
2022/03/06 01:37:11;;;;;;;;;;;8.30;99.90;;;;;;5019744;28;19909;-91
2022/03/06 01:39:36;;;;;;;;;;;8.30;99.90;;;;;;5019634;28;19909;-91
2022/03/06 01:42:02;;;;;;;;;;;8.30;99.90;;;;;;5018109;28;19920;-90
2022/03/06 01:44:28;;;;;;;;;;;8.40;99.90;;;;;;5019187;28;20333;-90
2022/03/06 01:46:54;;;;;;;;;;;8.40;99.90;;;;;;5023025;28;19909;-92
2022/03/06 01:49:19;;;;;;;;;;;8.40;99.90;;;;;;5019900;28;19917;-90
2022/03/06 01:51:45;;;;;;;;;;;8.40;99.90;;;;;;5022578;28;19920;-91
2022/03/06 01:54:11;;;;;;;;;;;8.30;99.90;;;;;;5025149;28;20389;-91
2022/03/06 01:56:36;;;;;;;;;;;8.30;99.90;;;;;;5021509;28;19909;-91
2022/03/06 01:59:03;;;;;;;;;;;8.40;99.90;;;;;;5022446;28;20339;-91
2022/03/06 02:01:30;;;;;;;;;;;8.30;99.90;;;;;;5025727;28;19913;-91
2022/03/06 02:03:55;;;;;;;;;;;8.30;99.90;;;;;;5050116;28;19943;-91
2022/03/06 02:06:22;;;;;;;;;;;8.30;99.90;;;;;;5022670;28;19951;-91
2022/03/06 02:08:48;;;;;;;;;;;8.30;99.90;;;;;;5019856;28;19910;-91
2022/03/06 02:11:14;;;;;;;;;;;8.30;99.90;;;;;;5024199;28;19909;-91
2022/03/06 02:13:40;;;;;;;;;;;8.30;99.90;;;;;;5022790;28;19957;-91
2022/03/06 02:16:05;;;;;;;;;;;8.30;99.90;;;;;;5025911;28;20014;-91
2022/03/06 02:18:31;;;;;;;;;;;8.30;99.90;;;;;;5022175;28;19909;-90
2022/03/06 02:20:57;;;;;;;;;;;8.20;99.90;;;;;;5022437;28;19909;-91
2022/03/06 02:23:24;;;;;;;;;;;8.20;99.90;;;;;;5021816;28;19916;-91
2022/03/06 02:25:49;;;;;;;;;;;8.20;99.90;;;;;;5022347;28;20374;-91
2022/03/06 02:28:15;;;;;;;;;;;8.10;99.90;;;;;;5019801;28;19913;-91
2022/03/06 02:30:42;;;;;;;;;;;8.10;99.90;;;;;;5022885;28;19976;-90
2022/03/06 02:33:09;;;;;;;;;;;8.00;99.90;;;;;;5023497;28;19925;-90
2022/03/06 02:35:35;;;;;;;;;;;8.00;99.90;;;;;;5022153;28;19909;-91
2022/03/06 02:38:01;;;;;;;;;;;8.10;99.90;;;;;;5023385;28;19920;-92
2022/03/06 02:40:26;;;;;;;;;;;8.10;99.90;;;;;;5022420;28;20006;-92
2022/03/06 02:42:53;;;;;;;;;;;8.10;99.90;;;;;;5023512;28;19917;-92
2022/03/06 02:45:20;;;;;;;;;;;8.10;99.90;;;;;;5023623;28;19905;-91
2022/03/06 02:47:46;;;;;;;;;;;8.10;99.90;;;;;;5023382;28;19920;-92
2022/03/06 02:50:25;;;;;;;;;;;8.10;99.90;;;;;;5026139;28;19941;-91
2022/03/06 02:52:55;;;;;;;;;;;8.00;99.90;;;;;;5019465;28;19925;-92
2022/03/06 02:55:21;;;;;;;;;;;8.00;99.90;;;;;;5027042;28;19921;-93
2022/03/06 02:57:47;;;;;;;;;;;8.00;99.90;;;;;;5025530;28;19916;-92
2022/03/06 03:00:14;;;;;;;;;;;8.00;99.90;;;;;;5025424;28;19943;-91
2022/03/06 03:02:40;;;;;;;;;;;8.00;99.90;;;;;;5023773;28;19920;-91
2022/03/06 03:05:06;;;;;;;;;;;8.00;99.90;;;;;;5023957;28;20281;-91
2022/03/06 03:07:31;;;;;;;;;;;8.00;99.90;;;;;;5024313;28;19917;-90
2022/03/06 03:09:57;;;;;;;;;;;8.00;99.90;;;;;;5021108;28;19909;-91
2022/03/06 03:12:23;;;;;;;;;;;8.00;99.90;;;;;;5022431;28;19923;-91
2022/03/06 03:14:49;;;;;;;;;;;7.80;99.90;;;;;;5021421;28;20156;-91
2022/03/06 03:17:14;;;;;;;;;;;7.80;99.90;;;;;;5018872;28;19913;-91
2022/03/06 03:19:40;;;;;;;;;;;7.80;99.90;;;;;;5022945;28;20251;-90
2022/03/06 03:22:05;;;;;;;;;;;7.80;99.90;;;;;;5019881;28;19988;-94
2022/03/06 03:24:31;;;;;;;;;;;7.70;99.90;;;;;;5021697;28;19910;-91
2022/03/06 03:26:57;;;;;;;;;;;7.80;99.90;;;;;;5022943;28;19972;-91
2022/03/06 03:29:22;;;;;;;;;;;7.80;99.90;;;;;;5024523;28;19910;-92
2022/03/06 03:31:48;;;;;;;;;;;7.80;99.90;;;;;;5023645;28;20075;-91
2022/03/06 03:34:14;;;;;;;;;;;7.80;99.90;;;;;;5020252;28;19920;-90
2022/03/06 03:36:40;;;;;;;;;;;7.80;99.90;;;;;;5021381;28;19972;-92
2022/03/06 03:39:05;;;;;;;;;;;7.90;99.90;;;;;;5021635;28;19967;-91
2022/03/06 03:41:31;;;;;;;;;;;7.90;99.90;;;;;;5021715;28;19996;-92
2022/03/06 03:43:57;;;;;;;;;;;7.90;99.90;;;;;;5021313;28;19909;-92
2022/03/06 03:46:22;;;;;;;;;;;8.00;99.90;;;;;;5021493;28;20282;-93
2022/03/06 03:48:48;;;;;;;;;;;8.00;99.90;;;;;;5027461;28;20279;-92
2022/03/06 03:51:14;;;;;;;;;;;8.00;99.90;;;;;;5023886;28;19948;-93
2022/03/06 03:53:39;;;;;;;;;;;8.00;99.90;;;;;;5023446;28;19918;-95
2022/03/06 03:56:05;;;;;;;;;;;8.10;99.90;;;;;;5020429;28;19916;-92
2022/03/06 03:58:32;;;;;;;;;;;8.10;99.90;;;;;;5020142;28;19916;-91
2022/03/06 04:00:58;;;;;;;;;;;8.00;99.90;;;;;;5022734;28;19963;-91
2022/03/06 04:03:24;;;;;;;;;;;8.00;99.90;;;;;;5023335;28;19910;-92
2022/03/06 04:05:49;;;;;;;;;;;8.00;99.90;;;;;;5020841;28;19932;-96
2022/03/06 04:08:15;;;;;;;;;;;8.00;99.90;;;;;;5020767;28;19924;-91
2022/03/06 04:10:41;;;;;;;;;;;8.00;99.90;;;;;;5019753;28;20444;-90
2022/03/06 04:13:06;;;;;;;;;;;8.00;99.90;;;;;;5018208;28;19921;-91
2022/03/06 04:15:32;;;;;;;;;;;8.00;99.90;;;;;;5020819;28;20288;-91
2022/03/06 04:17:58;;;;;;;;;;;8.00;99.90;;;;;;5024246;28;19929;-92
2022/03/06 04:20:23;;;;;;;;;;;7.90;99.90;;;;;;5020280;28;19909;-92
2022/03/06 04:22:49;;;;;;;;;;;7.90;99.90;;;;;;5022319;28;19945;-91
2022/03/06 04:25:14;;;;;;;;;;;8.00;99.90;;;;;;5022074;28;19893;-91
2022/03/06 04:27:40;;;;;;;;;;;8.00;99.90;;;;;;5021664;28;19967;-91
2022/03/06 04:30:06;;;;;;;;;;;8.00;99.90;;;;;;5024928;28;19924;-94
2022/03/06 04:32:32;;;;;;;;;;;8.00;99.90;;;;;;5024027;28;19918;-91
2022/03/06 04:34:57;;;;;;;;;;;8.10;99.90;;;;;;5018423;28;19913;-91
2022/03/06 04:37:23;;;;;;;;;;;8.20;99.90;;;;;;5019815;28;19916;-92
2022/03/06 04:39:49;;;;;;;;;;;8.10;99.90;;;;;;5019932;28;19971;-91
2022/03/06 04:42:15;;;;;;;;;;;8.10;99.90;;;;;;5021873;28;20004;-91
2022/03/06 04:44:40;;;;;;;;;;;8.10;99.90;;;;;;5020760;28;20441;-91
2022/03/06 04:47:06;;;;;;;;;;;8.20;99.90;;;;;;5022913;28;20298;-91
2022/03/06 04:49:32;;;;;;;;;;;8.20;99.90;;;;;;5020268;28;19956;-92
2022/03/06 04:51:57;;;;;;;;;;;8.10;99.90;;;;;;5020646;28;20384;-92
2022/03/06 04:54:23;;;;;;;;;;;8.10;99.90;;;;;;5021511;28;19939;-92
2022/03/06 04:56:48;;;;;;;;;;;8.20;99.90;;;;;;5022448;28;20369;-92
2022/03/06 04:59:14;;;;;;;;;;;8.30;99.90;;;;;;5019741;28;19909;-91
2022/03/06 05:01:40;;;;;;;;;;;8.30;99.90;;;;;;5022694;28;20274;-92
2022/03/06 05:04:05;;;;;;;;;;;8.30;99.90;;;;;;5026793;28;20004;-92
2022/03/06 05:06:31;;;;;;;;;;;8.20;99.90;;;;;;5018867;28;19992;-92
2022/03/06 05:08:56;;;;;;;;;;;8.20;99.90;;;;;;5017693;28;19909;-91
2022/03/06 05:11:23;;;;;;;;;;;8.20;99.90;;;;;;5020211;28;19909;-91
2022/03/06 05:13:48;;;;;;;;;;;8.20;99.90;;;;;;5021579;28;19916;-92
2022/03/06 05:16:14;;;;;;;;;;;8.20;99.90;;;;;;5019590;28;19920;-91
2022/03/06 05:18:39;;;;;;;;;;;8.30;99.90;;;;;;5020768;28;20000;-92
2022/03/06 05:21:05;;;;;;;;;;;8.30;99.90;;;;;;5023500;28;19910;-92
2022/03/06 05:23:31;;;;;;;;;;;8.30;99.90;;;;;;5026990;28;20375;-91
2022/03/06 05:25:57;;;;;;;;;;;8.20;99.90;;;;;;5022743;28;20016;-91
2022/03/06 05:28:23;;;;;;;;;;;8.20;99.90;;;;;;5023688;28;19909;-92
2022/03/06 05:30:49;;;;;;;;;;;8.10;99.90;;;;;;5026695;28;19927;-92
2022/03/06 05:33:14;;;;;;;;;;;8.10;99.90;;;;;;5021540;28;20011;-92
2022/03/06 05:35:40;;;;;;;;;;;8.10;99.90;;;;;;5027052;28;20409;-92
2022/03/06 05:38:05;;;;;;;;;;;8.10;99.90;;;;;;5025220;28;19919;-92
2022/03/06 05:40:31;;;;;;;;;;;8.10;99.90;;;;;;5024571;28;19921;-91
2022/03/06 05:42:57;;;;;;;;;;;8.10;99.90;;;;;;5021419;28;19920;-91
2022/03/06 05:45:22;;;;;;;;;;;8.10;99.90;;;;;;5025116;28;19921;-92
2022/03/06 05:47:48;;;;;;;;;;;8.20;99.90;;;;;;5021027;28;20033;-91
2022/03/06 05:50:14;;;;;;;;;;;8.20;99.90;;;;;;5025519;28;20271;-92
2022/03/06 05:52:39;;;;;;;;;;;8.30;99.90;;;;;;5025858;28;19917;-92
2022/03/06 05:55:05;;;;;;;;;;;8.30;99.90;;;;;;5028192;28;19909;-92
2022/03/06 05:57:31;;;;;;;;;;;8.20;99.90;;;;;;5022788;28;20508;-92
2022/03/06 05:59:57;;;;;;;;;;;8.20;99.90;;;;;;5016696;28;19913;-92
2022/03/06 06:02:23;;;;;;;;;;;8.30;99.90;;;;;;5024552;28;19928;-93
2022/03/06 06:04:49;;;;;;;;;;;8.30;99.90;;;;;;5023163;28;20381;-92
2022/03/06 06:07:15;;;;;;;;;;;8.30;99.90;;;;;;5021227;28;19932;-92
2022/03/06 06:09:41;;;;;;;;;;;8.30;99.90;;;;;;5025026;28;20373;-93
2022/03/06 06:12:07;;;;;;;;;;;8.30;99.90;;;;;;5026343;28;19914;-92
2022/03/06 06:14:32;;;;;;;;;;;8.30;99.90;;;;;;5052414;28;19910;-92
2022/03/06 06:16:58;;;;;;;;;;;8.30;99.90;;;;;;5026736;28;19963;-92
2022/03/06 06:19:23;;;;;;;;;;;8.40;99.90;;;;;;5022500;28;19913;-93
2022/03/06 06:21:49;;;;;;;;;;;8.30;99.90;;;;;;5022916;28;19948;-93
2022/03/06 06:24:15;;;;;;;;;;;8.20;99.90;;;;;;5023074;28;19909;-92
2022/03/06 06:26:41;;;;;;;;;;;8.20;99.90;;;;;;5021998;28;19913;-92
2022/03/06 06:29:07;;;;;;;;;;;8.30;99.90;;;;;;5021746;28;20008;-93
2022/03/06 06:31:33;;;;;;;;;;;8.20;99.90;;;;;;5021961;28;20015;-92
2022/03/06 06:33:58;;;;;;;;;;;8.30;99.90;;;;;;5022972;28;20271;-92
2022/03/06 06:36:24;;;;;;;;;;;8.30;99.90;;;;;;5021247;28;19909;-92
2022/03/06 06:38:49;;;;;;;;;;;8.30;99.90;;;;;;5021334;28;19945;-93
2022/03/06 06:41:15;;;;;;;;;;;8.30;99.90;;;;;;5022704;28;20412;-92
2022/03/06 06:43:43;;;;;;;;;;;8.30;99.90;;;;;;5023319;28;19913;-92
2022/03/06 06:46:10;;;;;;;;;;;8.30;99.90;;;;;;5023144;28;20446;-93
2022/03/06 06:48:35;;;;;;;;;;;8.20;99.90;;;;;;5023624;28;20433;-92
2022/03/06 06:51:01;;;;;;;;;;;8.30;99.90;;;;;;5024134;28;19960;-94
2022/03/06 06:53:26;;;;;;;;;;;8.20;99.90;;;;;;5022865;28;19968;-92
2022/03/06 06:55:52;;;;;;;;;;;8.30;99.90;;;;;;5022220;28;20027;-92
2022/03/06 06:58:17;;;;;;;;;;;8.30;99.90;;;;;;5024973;28;20392;-92
2022/03/06 07:00:43;;;;;;;;;;;8.30;99.90;;;;;;5023692;28;19916;-92
2022/03/06 07:03:09;;;;;;;;;;;8.20;99.90;;;;;;5021861;28;19913;-92
2022/03/06 07:05:34;;;;;;;;;;;8.20;99.90;;;;;;5022087;28;19910;-94
2022/03/06 07:08:00;;;;;;;;;;;8.20;99.90;;;;;;5021034;28;19909;-93
2022/03/06 07:10:26;;;;;;;;;;;8.20;99.90;;;;;;5022884;28;19910;-92
2022/03/06 07:12:53;;;;;;;;;;;8.20;99.90;;;;;;5017991;28;20409;-92
2022/03/06 07:15:18;;;;;;;;;;;8.20;99.90;;;;;;5021095;28;19916;-91
2022/03/06 07:17:44;;;;;;;;;;;8.30;99.90;;;;;;5021471;28;19909;-91
2022/03/06 07:20:10;;;;;;;;;;;8.30;99.90;;;;;;5023453;28;20259;-92
2022/03/06 07:22:36;;;;;;;;;;;8.30;99.90;;;;;;5021493;28;19948;-88
2022/03/06 07:25:02;;;;;;;;;;;8.30;99.90;;;;;;5021211;28;19916;-93
2022/03/06 07:27:27;;;;;;;;;;;8.30;99.90;;;;;;5017361;28;20262;-92
2022/03/06 07:29:53;;;;;;;;;;;8.30;99.90;;;;;;5022002;28;19945;-93
2022/03/06 07:32:18;;;;;;;;;;;8.30;99.90;;;;;;5019572;28;20008;-93
2022/03/06 07:34:44;;;;;;;;;;;8.30;99.90;;;;;;5022340;28;19948;-92
2022/03/06 07:37:09;;;;;;;;;;;8.30;99.90;;;;;;5022808;28;19909;-92
2022/03/06 07:39:35;;;;;;;;;;;8.30;99.90;;;;;;5020725;28;19915;-93
2022/03/06 07:42:01;;;;;;;;;;;8.40;99.90;;;;;;5022786;28;19917;-91
2022/03/06 07:44:26;;;;;;;;;;;8.40;99.90;;;;;;5020921;28;19921;-93
2022/03/06 07:46:52;;;;;;;;;;;8.50;99.90;;;;;;5019678;28;19917;-88
2022/03/06 07:49:17;;;;;;;;;;;8.40;99.90;;;;;;5022220;28;19910;-93
2022/03/06 07:51:43;;;;;;;;;;;8.50;99.90;;;;;;5022102;28;19956;-93
2022/03/06 07:54:14;;;;;;;;;;;8.50;99.90;;;;;;5021645;28;19917;-94
2022/03/06 07:56:46;;;;;;;;;;;8.50;99.90;;;;;;5020665;28;19932;-93
2022/03/06 07:59:12;;;;;;;;;;;8.60;99.90;;;;;;5022163;28;19992;-93
2022/03/06 08:01:38;;;;;;;;;;;8.60;99.90;;;;;;5020078;28;21244;-94
2022/03/06 08:04:04;;;;;;;;;;;8.70;99.90;;;;;;5019075;28;19956;-92
2022/03/06 08:06:29;;;;;;;;;;;8.70;99.90;;;;;;5022030;28;19935;-93
2022/03/06 08:08:55;;;;;;;;;;;8.70;99.90;;;;;;5020718;28;19916;-93
2022/03/06 08:11:20;;;;;;;;;;;8.80;99.90;;;;;;5020611;28;19909;-92
2022/03/06 08:13:46;;;;;;;;;;;8.80;99.90;;;;;;5019805;28;19917;-93
2022/03/06 08:16:11;;;;;;;;;;;8.90;99.90;;;;;;5021336;28;20385;-93
2022/03/06 08:18:37;;;;;;;;;;;9.10;99.90;;;;;;5021985;28;19918;-92
2022/03/06 08:21:03;;;;;;;;;;;9.10;99.90;;;;;;5021933;28;19913;-92
2022/03/06 08:23:28;;;;;;;;;;;9.10;99.90;;;;;;5019641;28;20018;-92
2022/03/06 08:25:54;;;;;;;;;;;9.10;99.90;;;;;;5021157;28;19909;-92
2022/03/06 08:28:29;;;;;;;;;;;;;;;;;;;;;
2022/03/06 08:30:55;;;;;;;;;;;9.40;99.90;;;;;;5021423;28;19910;-95
2022/03/06 08:33:21;;;;;;;;;;;9.40;99.90;;;;;;5020665;28;20024;-88
2022/03/06 08:35:46;;;;;;;;;;;9.30;99.90;;;;;;5022440;28;19925;-88
2022/03/06 08:38:12;;;;;;;;;;;9.20;99.90;;;;;;5020698;28;20039;-88
2022/03/06 08:40:37;;;;;;;;;;;9.30;99.90;;;;;;5019793;28;19932;-89
2022/03/06 08:43:03;;;;;;;;;;;9.40;99.90;;;;;;5019493;28;19913;-89
2022/03/06 08:45:28;;;;;;;;;;;9.50;99.90;;;;;;5019887;28;19940;-88
2022/03/06 08:47:54;;;;;;;;;;;9.50;99.90;;;;;;5020013;28;19963;-89
2022/03/06 08:50:20;;;;;;;;;;;9.60;99.90;;;;;;5018416;28;19941;-89
2022/03/06 08:52:45;;;;;;;;;;;9.60;99.90;;;;;;5019857;28;19921;-88
2022/03/06 08:55:11;;;;;;;;;;;9.80;99.90;;;;;;5019067;28;20440;-88
2022/03/06 08:57:37;;;;;;;;;;;9.80;99.90;;;;;;5019584;28;19915;-88
2022/03/06 09:00:04;;;;;;;;;;;9.80;99.90;;;;;;5018175;28;19956;-88
2022/03/06 09:02:29;;;;;;;;;;;9.90;99.90;;;;;;5021256;28;19917;-88
2022/03/06 09:04:55;;;;;;;;;;;9.80;99.90;;;;;;5018758;28;20404;-88
2022/03/06 09:07:20;;;;;;;;;;;9.90;99.90;;;;;;5019886;28;19909;-88
2022/03/06 09:09:46;;;;;;;;;;;9.90;99.90;;;;;;5044421;28;19916;-88
2022/03/06 09:12:11;;;;;;;;;;;10.00;99.90;;;;;;5017710;28;19910;-88
2022/03/06 09:14:37;;;;;;;;;;;9.90;99.90;;;;;;5017118;28;19936;-88
2022/03/06 09:17:03;;;;;;;;;;;9.90;99.90;;;;;;5020650;28;20282;-88
2022/03/06 09:19:28;;;;;;;;;;;9.90;99.90;;;;;;5036772;28;20419;-87
2022/03/06 09:21:54;;;;;;;;;;;10.10;99.90;;;;;;5019754;28;20278;-88
2022/03/06 09:24:19;;;;;;;;;;;10.30;99.90;;;;;;5019441;28;20382;-87
2022/03/06 09:26:47;;;;;;;;;;;10.40;99.90;;;;;;5018245;28;20374;-88
2022/03/06 09:29:12;;;;;;;;;;;10.60;99.90;;;;;;5029033;28;19933;-87
2022/03/06 09:31:39;;;;;;;;;;;10.70;99.90;;;;;;5032217;28;19936;-87
2022/03/06 09:34:05;;;;;;;;;;;11.00;99.90;;;;;;5031024;28;19928;-87
2022/03/06 09:36:31;;;;;;;;;;;11.10;99.90;;;;;;5030527;28;19912;-87
2022/03/06 09:38:56;;;;;;;;;;;11.10;99.90;;;;;;5029560;28;19905;-87
2022/03/06 09:41:25;;;;;;;;;;;11.10;99.90;;;;;;5031865;28;19936;-87
2022/03/06 09:43:53;;;;;;;;;;;11.00;99.90;;;;;;5029902;28;19931;-87
2022/03/06 09:46:19;;;;;;;;;;;10.90;99.90;;;;;;5031732;28;20005;-87
2022/03/06 09:48:45;;;;;;;;;;;10.80;99.90;;;;;;5030942;28;19905;-87
2022/03/06 09:51:10;;;;;;;;;;;10.70;99.90;;;;;;5030246;28;19911;-87
2022/03/06 09:53:36;;;;;;;;;;;10.50;99.90;;;;;;5021839;28;20117;-87
2022/03/06 09:56:02;;;;;;;;;;;10.50;99.90;;;;;;5032497;28;20190;-87
2022/03/06 09:58:27;;;;;;;;;;;10.50;99.90;;;;;;5032639;28;20190;-87
2022/03/06 10:00:53;;;;;;;;;;;10.50;99.90;;;;;;5031295;28;19940;-87
2022/03/06 10:03:20;;;;;;;;;;;10.70;99.90;;;;;;5031562;28;19956;-87
2022/03/06 10:05:46;;;;;;;;;;;10.70;99.90;;;;;;5031275;28;19905;-87
2022/03/06 10:08:14;;;;;;;;;;;10.70;99.90;;;;;;5030665;28;19944;-87
2022/03/06 10:10:40;;;;;;;;;;;10.80;99.90;;;;;;5027522;28;19937;-87
2022/03/06 10:13:06;;;;;;;;;;;10.80;99.90;;;;;;5032541;28;19928;-87
2022/03/06 10:15:32;;;;;;;;;;;10.70;99.90;;;;;;5035342;28;20000;-87
2022/03/06 10:18:01;;;;;;;;;;;10.70;99.90;;;;;;5034928;28;19905;-87
2022/03/06 10:20:29;;;;;;;;;;;10.70;99.90;;;;;;5033502;28;19947;-87
2022/03/06 10:22:55;;;;;;;;;;;10.70;99.90;;;;;;5033962;28;19980;-87
2022/03/06 10:25:21;;;;;;;;;;;10.80;99.90;;;;;;5033431;28;19959;-87
2022/03/06 10:27:54;;;;;;;;;;;10.90;99.90;;;;;;5034457;28;19917;-87
2022/03/06 10:30:31;;;;;;;;;;;11.10;99.90;;;;;;5033464;28;19998;-87
2022/03/06 10:32:59;;;;;;;;;;;11.30;99.90;;;;;;5033596;28;19925;-87
2022/03/06 10:35:32;;;;;;;;;;;11.50;99.90;;;;;;5033992;28;20082;-87
2022/03/06 10:37:58;;;;;;;;;;;11.70;99.90;;;;;;5033805;28;20136;-87
2022/03/06 10:40:37;;;;;;;;;;;11.90;99.90;;;;;;5033832;28;19940;-87
2022/03/06 10:43:15;;;;;;;;;;;12.00;99.90;;;;;;5030674;28;19973;-87
2022/03/06 10:45:41;;;;;;;;;;;12.10;99.90;;;;;;5034472;28;19988;-87
2022/03/06 10:48:10;;;;;;;;;;;12.30;99.90;;;;;;5034751;28;19906;-87
2022/03/06 10:50:36;;;;;;;;;;;12.60;99.90;;;;;;5034499;28;19905;-87
2022/03/06 10:53:01;;;;;;;;;;;12.60;99.90;;;;;;5033687;28;19913;-87
2022/03/06 10:55:36;;;;;;;;;;;12.80;99.90;;;;;;5033967;28;19913;-87
2022/03/06 10:58:05;;;;;;;;;;;12.90;99.90;;;;;;5032192;28;19905;-87
2022/03/06 11:00:32;;;;;;;;;;;12.80;99.90;;;;;;5031608;28;19906;-87
2022/03/06 11:03:03;;;;;;;;;;;12.80;99.90;;;;;;5033028;28;20040;-87
2022/03/06 11:05:30;;;;;;;;;;;12.80;99.90;;;;;;5032595;28;19905;-88
2022/03/06 11:07:55;;;;;;;;;;;13.00;99.90;;;;;;5033603;28;20130;-86
2022/03/06 11:10:21;;;;;;;;;;;13.10;99.90;;;;;;5033713;28;19905;-87
2022/03/06 11:12:47;;;;;;;;;;;13.10;99.90;;;;;;5032985;28;19967;-88
2022/03/06 11:15:13;;;;;;;;;;;13.30;99.90;;;;;;5033014;28;19910;-88
2022/03/06 11:17:39;;;;;;;;;;;13.70;99.90;;;;;;5033335;28;19970;-88
2022/03/06 11:20:05;;;;;;;;;;;13.80;99.90;;;;;;5023675;28;19980;-88
2022/03/06 11:22:33;;;;;;;;;;;13.90;99.90;;;;;;5018525;28;19936;-88
2022/03/06 11:25:02;;;;;;;;;;;13.90;99.90;;;;;;5044023;28;19916;-88
2022/03/06 11:27:34;;;;;;;;;;;13.80;99.90;;;;;;5010931;28;19914;-88
2022/03/06 11:30:06;;;;;;;;;;;14.00;99.90;;;;;;5028108;28;20045;-88
2022/03/06 11:32:33;;;;;;;;;;;14.00;99.90;;;;;;5027304;28;19918;-88
2022/03/06 11:35:15;;;;;;;;;;;14.10;99.90;;;;;;5012141;28;20207;-88
2022/03/06 11:37:54;;;;;;;;;;;14.20;99.90;;;;;;5027151;28;20286;-88
2022/03/06 11:40:33;;;;;;;;;;;14.30;99.90;;;;;;5012011;28;19913;-88
2022/03/06 11:42:59;;;;;;;;;;;14.40;99.90;;;;;;5012332;28;19960;-88
2022/03/06 11:45:44;;;;;;;;;;;14.30;99.90;;;;;;5011822;28;19972;-88
2022/03/06 11:48:10;;;;;;;;;;;14.20;99.90;;;;;;5032176;28;20393;-88
2022/03/06 11:50:36;;;;;;;;;;;14.20;99.90;;;;;;5065384;28;19909;-88
2022/03/06 11:53:18;;;;;;;;;;;14.10;99.90;;;;;;5032315;28;20257;-88
2022/03/06 11:55:44;;;;;;;;;;;14.10;99.90;;;;;;5032665;28;19955;-88
2022/03/06 11:58:09;;;;;;;;;;;14.20;99.90;;;;;;5017551;28;19914;-88
2022/03/06 12:00:36;;;;;;;;;;;14.20;99.90;;;;;;5022846;28;19940;-88
2022/03/06 12:03:01;;;;;;;;;;;14.40;99.90;;;;;;5025501;28;19909;-88
2022/03/06 12:05:47;;;;;;;;;;;14.40;99.90;;;;;;5016875;28;19959;-88
2022/03/06 12:08:13;;;;;;;;;;;14.40;99.90;;;;;;5011890;28;19913;-88
2022/03/06 12:10:39;;;;;;;;;;;14.20;99.90;;;;;;5011245;28;19913;-89
2022/03/06 12:13:15;;;;;;;;;;;14.20;99.90;;;;;;5015360;28;19979;-88
2022/03/06 12:15:41;;;;;;;;;;;14.30;99.90;;;;;;5013656;28;19914;-88
2022/03/06 12:18:15;;;;;;;;;;;14.40;99.90;;;;;;5026457;28;19916;-89
2022/03/06 12:20:42;;;;;;;;;;;14.60;99.90;;;;;;5012297;28;20444;-94
2022/03/06 12:23:19;;;;;;;;;;;14.80;99.90;;;;;;5019468;28;19913;-92
2022/03/06 12:25:49;;;;;;;;;;;14.90;98.30;;;;;;5012632;28;19909;-88
2022/03/06 12:28:16;;;;;;;;;;;15.00;99.20;;;;;;5011789;28;19917;-87
2022/03/06 12:30:42;;;;;;;;;;;15.00;99.60;;;;;;5027039;28;20377;-87
2022/03/06 12:33:26;;;;;;;;;;;14.90;98.20;;;;;;5012538;28;19971;-87
2022/03/06 12:36:06;;;;;;;;;;;14.80;99.00;;;;;;5031593;28;20003;-87
2022/03/06 12:38:32;;;;;;;;;;;14.80;99.40;;;;;;5021518;28;19913;-87
2022/03/06 12:40:58;;;;;;;;;;;15.00;99.90;;;;;;5012087;28;19910;-87
2022/03/06 12:43:24;;;;;;;;;;;15.40;99.30;;;;;;5011133;28;19932;-87
2022/03/06 12:45:50;;;;;;;;;;;15.60;98.90;;;;;;5014620;28;19917;-87
2022/03/06 12:48:16;;;;;;;;;;;15.40;97.70;;;;;;5014566;28;19916;-87
2022/03/06 12:50:42;;;;;;;;;;;15.00;98.30;;;;;;5026436;28;19909;-87
2022/03/06 12:53:08;;;;;;;;;;;14.60;98.70;;;;;;5009411;28;20186;-87
2022/03/06 12:55:36;;;;;;;;;;;14.50;99.80;;;;;;5003897;28;20452;-88
2022/03/06 12:58:02;;;;;;;;;;;14.40;99.30;;;;;;5009773;28;20389;-87
2022/03/06 13:00:31;;;;;;;;;;;14.50;99.90;;;;;;5012516;28;20054;-87
2022/03/06 13:03:05;;;;;;;;;;;14.60;99.70;;;;;;5011459;28;19941;-87
2022/03/06 13:05:31;;;;;;;;;;;14.60;99.90;;;;;;5011283;28;20367;-87
2022/03/06 13:07:57;;;;;;;;;;;14.50;99.60;;;;;;5010894;28;20329;-88
2022/03/06 13:10:22;;;;;;;;;;;14.40;99.10;;;;;;5030513;28;19905;-88
2022/03/06 13:12:52;;;;;;;;;;;14.50;99.90;;;;;;5030456;28;19921;-88
2022/03/06 13:15:18;;;;;;;;;;;14.80;99.90;;;;;;5030533;28;19913;-88
2022/03/06 13:17:48;;;;;;;;;;;15.00;99.50;;;;;;5047467;28;20416;-87
2022/03/06 13:20:14;;;;;;;;;;;15.00;99.20;;;;;;5029818;28;19909;-89
2022/03/06 13:22:40;;;;;;;;;;;15.00;99.90;;;;;;5030082;28;19991;-90
2022/03/06 13:25:07;;;;;;;;;;;15.20;99.90;;;;;;5030090;28;19910;-95
2022/03/06 13:27:34;;;;;;;;;;;15.20;98.80;;;;;;5012567;28;19909;-89
2022/03/06 13:30:12;;;;;;;;;;;15.00;99.40;;;;;;5012188;28;19957;-89
2022/03/06 13:32:47;;;;;;;;;;;14.70;99.40;;;;;;5026544;28;19918;-89
2022/03/06 13:35:30;;;;;;;;;;;14.40;99.90;;;;;;5020140;28;19955;-89
2022/03/06 13:37:56;;;;;;;;;;;14.20;99.90;;;;;;5030155;28;19916;-89
2022/03/06 13:40:23;;;;;;;;;;;14.20;99.90;;;;;;5030290;28;20382;-88
2022/03/06 13:42:49;;;;;;;;;;;14.10;99.90;;;;;;5029817;28;19913;-89
2022/03/06 13:45:14;;;;;;;;;;;14.10;99.90;;;;;;5030994;28;19936;-89
2022/03/06 13:47:41;;;;;;;;;;;14.30;99.90;;;;;;5019687;28;19960;-89
2022/03/06 13:50:07;;;;;;;;;;;14.30;99.90;;;;;;5028131;28;19905;-88
2022/03/06 13:52:34;;;;;;;;;;;14.50;99.90;;;;;;5016593;28;19920;-88
2022/03/06 13:55:04;;;;;;;;;;;14.70;99.90;;;;;;5033259;28;19909;-89
2022/03/06 13:57:30;;;;;;;;;;;15.10;99.90;;;;;;5032919;28;19916;-89
2022/03/06 13:59:55;;;;;;;;;;;15.40;99.90;;;;;;5036532;28;19910;-85
2022/03/06 14:02:24;;;;;;;;;;;15.70;99.90;;;;;;5034721;28;20133;-85
2022/03/06 14:04:50;;;;;;;;;;;15.80;99.60;;;;;;5032946;28;20102;-86
2022/03/06 14:07:23;;;;;;;;;;;15.90;99.70;;;;;;5033094;28;20111;-85
2022/03/06 14:09:48;;;;;;;;;;;16.20;98.70;;;;;;5033783;28;19909;-85
2022/03/06 14:12:15;;;;;;;;;;;16.20;98.30;;;;;;5033699;28;19927;-86
2022/03/06 14:14:42;;;;;;;;;;;15.90;98.20;;;;;;5033282;28;20405;-86
2022/03/06 14:17:09;;;;;;;;;;;15.70;98.80;;;;;;5034417;28;19992;-85
2022/03/06 14:19:35;;;;;;;;;;;15.80;99.80;;;;;;5033564;28;19917;-86
2022/03/06 14:22:00;;;;;;;;;;;16.00;98.30;;;;;;5032854;28;20388;-86
2022/03/06 14:24:26;;;;;;;;;;;16.20;99.80;;;;;;5032909;28;19917;-86